createdAt,value
2022-09-24T00:00:10.000Z,9.86
2022-09-24T00:02:59.194Z,9.92
2022-09-24T00:05:30.063Z,9.85
2022-09-24T00:08:00.144Z,9.89
2022-09-24T00:10:29.649Z,9.71
2022-09-24T00:12:58.616Z,9.74
2022-09-24T00:15:27.703Z,9.66
2022-09-24T00:17:57.344Z,9.79
2022-09-24T00:20:26.600Z,9.86
2022-09-24T00:22:56.962Z,9.92
2022-09-24T00:25:43.740Z,9.84
2022-09-24T00:28:14.554Z,9.78
2022-09-24T00:30:45.150Z,9.74
2022-09-24T00:33:14.541Z,9.85
2022-09-24T00:35:43.690Z,9.76
2022-09-24T00:38:14.266Z,9.68
2022-09-24T00:40:43.417Z,9.65
2022-09-24T00:43:26.607Z,9.59
2022-09-24T00:46:00.907Z,9.70
2022-09-24T00:48:30.366Z,9.53
2022-09-24T00:51:00.027Z,9.53
2022-09-24T00:53:33.316Z,9.50
2022-09-24T00:56:04.827Z,9.48
2022-09-24T00:58:34.089Z,9.36
2022-09-24T01:01:07.073Z,9.46
2022-09-24T01:03:42.553Z,9.53
2022-09-24T01:06:14.315Z,9.53
2022-09-24T01:08:45.715Z,9.60
2022-09-24T01:11:37.037Z,9.51
2022-09-24T01:14:35.461Z,9.57
2022-09-24T01:17:14.432Z,9.50
2022-09-24T01:20:03.901Z,9.40
2022-09-24T01:22:47.867Z,9.43
2022-09-24T01:25:27.565Z,9.45
2022-09-24T01:28:13.249Z,9.41
2022-09-24T01:30:44.178Z,9.28
2022-09-24T01:33:21.259Z,9.29
2022-09-24T01:35:55.073Z,9.25
2022-09-24T01:38:27.158Z,9.34
2022-09-24T01:41:00.061Z,9.21
2022-09-24T01:43:30.466Z,9.24
2022-09-24T01:46:06.050Z,9.29
2022-09-24T01:48:37.898Z,9.29
2022-09-24T01:51:14.519Z,9.31
2022-09-24T01:53:52.324Z,9.36
2022-09-24T01:56:38.269Z,9.32
2022-09-24T01:59:14.032Z,9.30
2022-09-24T02:01:48.519Z,9.36
2022-09-24T02:04:21.021Z,9.34
2022-09-24T02:06:56.495Z,9.31
2022-09-24T02:09:36.149Z,9.42
2022-09-24T02:12:11.370Z,9.43
2022-09-24T02:14:46.642Z,9.33
2022-09-24T02:17:17.627Z,9.32
2022-09-24T02:19:48.119Z,9.25
2022-09-24T02:22:18.688Z,9.36
2022-09-24T02:24:52.008Z,9.41
2022-09-24T02:27:21.923Z,9.35
2022-09-24T02:29:52.113Z,9.33
2022-09-24T02:33:46.341Z,9.50
2022-09-24T02:36:17.585Z,9.49
2022-09-24T02:38:47.503Z,9.57
2022-09-24T02:41:17.071Z,9.60
2022-09-24T02:43:46.427Z,9.53
2022-09-24T02:46:15.784Z,9.69
2022-09-24T02:48:45.104Z,9.77
2022-09-24T02:51:14.639Z,9.61
2022-09-24T02:53:45.198Z,9.81
2022-09-24T02:56:14.448Z,9.87
2022-09-24T02:58:43.703Z,9.74
2022-09-24T03:01:12.697Z,9.79
2022-09-24T03:03:42.044Z,9.96
2022-09-24T03:06:13.595Z,9.72
2022-09-24T03:08:44.599Z,9.93
2022-09-24T03:11:18.544Z,9.85
2022-09-24T03:13:48.162Z,9.65
2022-09-24T03:16:19.079Z,9.90
2022-09-24T03:18:48.896Z,9.94
2022-09-24T03:21:20.374Z,10.06
2022-09-24T03:23:51.817Z,10.11
2022-09-24T03:26:21.228Z,10.12
2022-09-24T03:28:50.399Z,10.17
2022-09-24T03:31:18.803Z,10.08
2022-09-24T03:33:49.990Z,10.00
2022-09-24T03:36:21.413Z,10.00
2022-09-24T03:38:55.370Z,9.99
2022-09-24T03:41:25.690Z,9.97
2022-09-24T03:43:55.614Z,10.14
2022-09-24T03:46:30.145Z,10.15
2022-09-24T03:49:00.552Z,10.17
2022-09-24T03:51:29.860Z,10.20
2022-09-24T03:54:00.509Z,10.20
2022-09-24T03:56:29.924Z,10.37
2022-09-24T03:58:59.026Z,10.28
2022-09-24T04:01:31.235Z,10.31
2022-09-24T04:04:01.255Z,10.43
2022-09-24T04:06:31.125Z,10.57
2022-09-24T04:09:01.746Z,10.65
2022-09-24T04:11:31.004Z,10.53
2022-09-24T04:14:00.207Z,10.56
2022-09-24T04:16:29.528Z,10.62
2022-09-24T04:18:58.882Z,10.61
2022-09-24T04:21:28.003Z,10.57
2022-09-24T04:23:57.202Z,10.56
2022-09-24T04:26:27.882Z,10.70
2022-09-24T04:28:59.303Z,10.80
2022-09-24T04:31:28.935Z,10.69
2022-09-24T04:33:58.203Z,10.58
2022-09-24T04:36:27.300Z,10.68
2022-09-24T04:38:57.225Z,10.87
2022-09-24T04:41:27.941Z,10.96
2022-09-24T04:43:59.395Z,10.93
2022-09-24T04:46:28.542Z,10.85
2022-09-24T04:48:57.581Z,10.91
2022-09-24T04:51:26.906Z,10.94
2022-09-24T04:53:56.084Z,10.95
2022-09-24T04:56:25.184Z,11.00
2022-09-24T04:58:55.771Z,11.01
2022-09-24T05:01:25.183Z,10.96
2022-09-24T05:03:54.370Z,10.67
2022-09-24T05:06:23.520Z,10.88
2022-09-24T05:08:52.894Z,10.79
2022-09-24T05:11:21.904Z,10.92
2022-09-24T05:13:50.990Z,10.95
2022-09-24T05:16:22.667Z,10.99
2022-09-24T05:18:51.843Z,10.99
2022-09-24T05:21:21.469Z,11.03
2022-09-24T05:23:50.550Z,10.99
2022-09-24T05:26:36.813Z,11.08
2022-09-24T05:29:05.942Z,11.14
2022-09-24T05:31:36.802Z,11.02
2022-09-24T05:34:06.376Z,11.11
2022-09-24T05:36:36.485Z,11.09
2022-09-24T05:39:05.912Z,11.33
2022-09-24T05:41:35.593Z,11.41
2022-09-24T05:44:05.113Z,11.18
2022-09-24T05:46:36.055Z,11.54
2022-09-24T05:49:05.683Z,11.42
2022-09-24T05:51:34.670Z,11.47
2022-09-24T05:54:03.817Z,11.32
2022-09-24T05:56:33.088Z,11.44
2022-09-24T05:59:02.121Z,11.64
2022-09-24T06:01:31.429Z,11.71
2022-09-24T06:04:07.792Z,11.87
2022-09-24T06:06:37.661Z,11.93
2022-09-24T06:09:09.085Z,12.00
2022-09-24T06:11:40.856Z,12.01
2022-09-24T06:14:11.464Z,12.06
2022-09-24T06:16:40.736Z,12.32
2022-09-24T06:19:11.178Z,12.54
2022-09-24T06:21:40.544Z,12.52
2022-09-24T06:24:09.913Z,12.50
2022-09-24T06:26:38.895Z,12.69
2022-09-24T06:29:08.319Z,12.91
2022-09-24T06:31:37.375Z,12.97
2022-09-24T06:34:06.461Z,13.20
2022-09-24T06:36:37.164Z,13.20
2022-09-24T06:39:06.353Z,13.38
2022-09-24T06:41:35.545Z,13.68
2022-09-24T06:44:05.207Z,13.90
2022-09-24T06:46:34.646Z,14.14
2022-09-24T06:49:03.704Z,14.30
2022-09-24T06:51:33.047Z,14.39
2022-09-24T06:56:50.324Z,14.40
2022-09-24T06:59:19.339Z,14.21
2022-09-24T07:01:48.324Z,14.69
2022-09-24T07:04:17.567Z,14.79
2022-09-24T07:07:04.509Z,15.15
2022-09-24T07:09:36.326Z,15.25
2022-09-24T07:12:08.416Z,15.53
2022-09-24T07:14:37.569Z,15.64
2022-09-24T07:17:06.612Z,15.63
2022-09-24T07:19:35.547Z,15.50
2022-09-24T07:22:04.901Z,15.74
2022-09-24T07:24:35.283Z,16.24
2022-09-24T07:27:07.035Z,16.45
2022-09-24T07:29:36.950Z,16.51
2022-09-24T07:32:06.705Z,15.75
2022-09-24T07:34:36.187Z,15.72
2022-09-24T07:37:06.001Z,16.14
2022-09-24T07:39:36.856Z,16.43
2022-09-24T07:42:07.808Z,16.54
2022-09-24T07:44:38.074Z,16.58
2022-09-24T07:47:10.970Z,16.55
2022-09-24T07:49:42.755Z,17.10
2022-09-24T07:52:12.632Z,17.47
2022-09-24T07:54:43.021Z,17.55
2022-09-24T07:57:14.042Z,17.63
2022-09-24T07:59:44.923Z,17.86
2022-09-24T08:02:19.381Z,17.75
2022-09-24T08:04:49.153Z,18.17
2022-09-24T08:07:18.358Z,18.09
2022-09-24T08:09:48.631Z,18.03
2022-09-24T08:12:17.641Z,17.95
2022-09-24T08:14:46.839Z,18.09
2022-09-24T08:17:15.821Z,17.92
2022-09-24T08:19:46.395Z,18.08
2022-09-24T08:22:15.801Z,18.58
2022-09-24T08:24:44.789Z,18.79
2022-09-24T08:27:17.486Z,18.78
2022-09-24T08:29:47.323Z,19.13
2022-09-24T08:32:16.504Z,19.38
2022-09-24T08:34:45.736Z,19.12
2022-09-24T08:37:14.924Z,19.55
2022-09-24T08:39:43.990Z,19.26
2022-09-24T08:42:24.942Z,18.74
2022-09-24T08:45:15.447Z,19.77
2022-09-24T08:47:50.031Z,19.87
2022-09-24T08:50:23.494Z,19.72
2022-09-24T08:53:02.955Z,19.61
2022-09-24T08:55:39.028Z,19.83
2022-09-24T08:58:27.367Z,20.35
2022-09-24T09:01:02.863Z,20.25
2022-09-24T09:03:36.475Z,20.46
2022-09-24T09:06:12.031Z,20.31
2022-09-24T09:09:05.663Z,20.36
2022-09-24T09:11:38.189Z,19.76
2022-09-24T09:14:17.605Z,20.04
2022-09-24T09:16:51.848Z,20.56
2022-09-24T09:19:25.079Z,20.52
2022-09-24T09:21:59.236Z,20.55
2022-09-24T09:24:39.692Z,20.96
2022-09-24T09:27:15.507Z,20.46
2022-09-24T09:29:48.213Z,20.77
2022-09-24T09:32:32.303Z,20.71
2022-09-24T09:35:12.502Z,20.78
2022-09-24T09:37:50.932Z,20.60
2022-09-24T09:40:32.922Z,21.83
2022-09-24T09:43:04.393Z,21.84
2022-09-24T09:45:43.083Z,22.32
2022-09-24T09:48:16.765Z,23.07
2022-09-24T09:50:49.219Z,23.54
2022-09-24T09:53:24.351Z,22.06
2022-09-24T09:55:54.628Z,23.13
2022-09-24T09:58:25.987Z,23.66
2022-09-24T10:01:05.911Z,24.43
2022-09-24T10:03:49.352Z,24.60
2022-09-24T10:06:26.523Z,24.86
2022-09-24T10:09:07.185Z,25.30
2022-09-24T10:11:36.466Z,24.57
2022-09-24T10:14:07.172Z,25.80
2022-09-24T10:16:41.102Z,26.74
2022-09-24T10:19:18.836Z,29.21
2022-09-24T10:21:48.148Z,28.58
2022-09-24T10:24:21.555Z,25.80
2022-09-24T10:26:51.828Z,25.68
2022-09-24T10:29:41.630Z,24.92
2022-09-24T10:32:19.484Z,25.02
2022-09-24T10:34:57.973Z,24.62
2022-09-24T10:37:28.215Z,24.54
2022-09-24T10:40:02.974Z,23.95
2022-09-24T10:42:33.116Z,25.26
2022-09-24T10:45:06.797Z,25.49
2022-09-24T10:47:48.387Z,25.76
2022-09-24T10:50:28.742Z,26.24
2022-09-24T10:53:02.747Z,29.17
2022-09-24T10:55:56.345Z,30.66
2022-09-24T10:58:51.635Z,29.60
2022-09-24T11:01:28.529Z,30.05
2022-09-24T11:04:27.428Z,26.69
2022-09-24T11:07:23.687Z,25.50
2022-09-24T11:10:03.002Z,23.71
2022-09-24T11:12:43.721Z,23.10
2022-09-24T11:15:25.844Z,22.71
2022-09-24T11:18:14.527Z,22.64
2022-09-24T11:20:51.847Z,22.37
2022-09-24T11:23:43.012Z,21.63
2022-09-24T11:26:24.485Z,21.99
2022-09-24T11:29:17.015Z,22.43
2022-09-24T11:31:55.493Z,21.82
2022-09-24T11:34:51.487Z,21.24
2022-09-24T11:37:36.150Z,21.24
2022-09-24T11:40:23.570Z,21.65
2022-09-24T11:43:06.904Z,22.34
2022-09-24T11:45:51.304Z,22.44
2022-09-24T11:48:44.236Z,22.62
2022-09-24T11:51:26.820Z,26.16
2022-09-24T11:54:04.228Z,25.42
2022-09-24T11:56:38.103Z,25.80
2022-09-24T11:59:16.901Z,24.18
2022-09-24T12:01:52.684Z,23.00
2022-09-24T12:04:28.996Z,22.73
2022-09-24T12:07:04.301Z,22.57
2022-09-24T12:09:41.947Z,22.24
2022-09-24T12:12:15.705Z,21.55
2022-09-24T12:14:50.896Z,20.94
2022-09-24T12:17:28.057Z,21.12
2022-09-24T12:20:01.601Z,20.68
2022-09-24T12:22:38.285Z,20.29
2022-09-24T12:25:13.965Z,20.22
2022-09-24T12:27:45.183Z,20.49
2022-09-24T12:30:47.422Z,20.37
2022-09-24T12:33:24.504Z,20.84
2022-09-24T12:36:04.627Z,20.72
2022-09-24T12:38:41.017Z,20.61
2022-09-24T12:41:28.813Z,20.57
2022-09-24T12:44:06.141Z,20.59
2022-09-24T12:46:41.175Z,21.14
2022-09-24T12:49:19.622Z,23.11
2022-09-24T12:51:49.030Z,24.64
2022-09-24T12:54:26.866Z,24.73
2022-09-24T12:57:10.260Z,24.45
2022-09-24T12:59:50.315Z,24.44
2022-09-24T13:02:22.070Z,23.78
2022-09-24T13:05:18.302Z,22.82
2022-09-24T13:08:00.209Z,22.22
2022-09-24T13:10:31.834Z,21.86
2022-09-24T13:13:04.346Z,21.21
2022-09-24T13:15:38.705Z,21.25
2022-09-24T13:18:21.594Z,20.93
2022-09-24T13:21:05.752Z,20.94
2022-09-24T13:23:46.314Z,21.39
2022-09-24T13:26:30.486Z,21.58
2022-09-24T13:29:03.431Z,21.62
2022-09-24T13:31:45.907Z,22.40
2022-09-24T13:34:21.480Z,22.96
2022-09-24T13:36:57.793Z,22.97
2022-09-24T13:39:34.902Z,23.13
2022-09-24T13:42:14.282Z,24.01
2022-09-24T13:44:50.182Z,24.50
2022-09-24T13:47:30.125Z,25.24
2022-09-24T13:50:15.253Z,24.48
2022-09-24T13:52:48.417Z,24.75
2022-09-24T13:55:22.896Z,23.73
2022-09-24T13:57:52.510Z,23.80
2022-09-24T14:00:26.359Z,23.99
2022-09-24T14:03:05.669Z,23.68
2022-09-24T14:05:37.177Z,24.01
2022-09-24T14:08:09.766Z,23.56
2022-09-24T14:10:40.049Z,24.12
2022-09-24T14:13:19.300Z,23.76
2022-09-24T14:16:00.692Z,23.58
2022-09-24T14:18:31.148Z,23.38
2022-09-24T14:21:07.413Z,23.44
2022-09-24T14:23:43.796Z,23.41
2022-09-24T14:26:20.292Z,23.07
2022-09-24T14:28:49.609Z,22.74
2022-09-24T14:31:20.335Z,22.78
2022-09-24T14:33:49.825Z,22.05
2022-09-24T14:36:19.283Z,22.68
2022-09-24T14:38:54.134Z,22.61
2022-09-24T14:41:26.914Z,23.12
2022-09-24T14:43:59.879Z,23.29
2022-09-24T14:46:33.856Z,23.28
2022-09-24T14:49:21.978Z,23.23
2022-09-24T14:51:56.339Z,23.59
2022-09-24T14:54:36.268Z,23.50
2022-09-24T14:57:22.417Z,22.79
2022-09-24T14:59:52.361Z,21.94
2022-09-24T15:02:30.806Z,21.39
2022-09-24T15:05:06.140Z,21.68
2022-09-24T15:07:39.872Z,21.89
2022-09-24T15:10:19.932Z,21.47
2022-09-24T15:12:49.585Z,21.71
2022-09-24T15:15:32.161Z,21.50
2022-09-24T15:18:02.744Z,21.34
2022-09-24T15:20:31.706Z,21.40
2022-09-24T15:23:00.745Z,22.07
2022-09-24T15:25:30.906Z,21.56
2022-09-24T15:27:59.870Z,21.09
2022-09-24T15:30:28.891Z,20.87
2022-09-24T15:32:58.179Z,20.58
2022-09-24T15:35:28.865Z,20.26
2022-09-24T15:38:00.173Z,19.77
2022-09-24T15:40:33.967Z,19.58
2022-09-24T15:43:03.793Z,19.43
2022-09-24T15:45:33.348Z,19.34
2022-09-24T15:48:02.622Z,18.97
2022-09-24T15:50:33.725Z,19.00
2022-09-24T15:53:03.784Z,18.78
2022-09-24T15:55:33.075Z,18.65
2022-09-24T15:58:02.098Z,18.60
2022-09-24T16:00:31.630Z,18.54
2022-09-24T16:03:02.225Z,18.48
2022-09-24T16:05:33.136Z,18.24
2022-09-24T16:08:02.740Z,18.10
2022-09-24T16:10:31.951Z,18.02
2022-09-24T16:13:00.875Z,17.92
2022-09-24T16:15:30.434Z,17.73
2022-09-24T16:17:59.438Z,17.63
2022-09-24T16:20:28.873Z,17.39
2022-09-24T16:22:59.663Z,17.20
2022-09-24T16:25:29.294Z,16.87
2022-09-24T16:27:59.575Z,17.00
2022-09-24T16:30:28.820Z,16.91
2022-09-24T16:32:57.823Z,16.73
2022-09-24T16:35:27.712Z,16.57
2022-09-24T16:37:58.354Z,16.51
2022-09-24T16:40:27.782Z,16.47
2022-09-24T16:42:57.301Z,16.29
2022-09-24T16:45:26.475Z,16.17
2022-09-24T16:47:55.821Z,15.96
2022-09-24T16:50:25.091Z,15.85
2022-09-24T16:52:55.401Z,15.88
2022-09-24T16:55:25.881Z,15.83
2022-09-24T16:57:55.167Z,15.74
2022-09-24T17:00:24.756Z,15.56
2022-09-24T17:02:53.924Z,15.55
2022-09-24T17:05:23.451Z,15.46
2022-09-24T17:07:54.547Z,15.52
2022-09-24T17:10:24.355Z,15.42
2022-09-24T17:12:55.372Z,15.27
2022-09-24T17:15:24.799Z,15.30
2022-09-24T17:17:53.891Z,15.32
2022-09-24T17:20:23.125Z,15.22
2022-09-24T17:22:54.692Z,15.19
2022-09-24T17:25:25.278Z,15.18
2022-09-24T17:27:54.562Z,15.11
2022-09-24T17:30:23.602Z,15.01
2022-09-24T17:32:52.755Z,15.09
2022-09-24T17:35:22.820Z,15.03
2022-09-24T17:37:53.559Z,15.05
2022-09-24T17:40:24.339Z,15.07
2022-09-24T17:42:56.002Z,15.03
2022-09-24T17:45:26.812Z,14.87
2022-09-24T17:47:58.682Z,14.75
2022-09-24T17:50:30.004Z,14.78
2022-09-24T17:53:00.065Z,14.81
2022-09-24T17:55:29.717Z,14.78
2022-09-24T17:58:00.369Z,14.75
2022-09-24T18:00:29.602Z,14.69
2022-09-24T18:02:59.187Z,14.64
2022-09-24T18:05:28.512Z,14.48
2022-09-24T18:07:57.877Z,14.48
2022-09-24T18:10:26.894Z,14.51
2022-09-24T18:12:56.111Z,14.36
2022-09-24T18:15:28.490Z,14.28
2022-09-24T18:17:58.395Z,14.27
2022-09-24T18:20:28.112Z,14.28
2022-09-24T18:22:57.148Z,14.04
2022-09-24T18:25:27.605Z,13.93
2022-09-24T18:28:01.055Z,13.82
2022-09-24T18:30:32.545Z,13.92
2022-09-24T18:33:02.815Z,13.85
2022-09-24T18:35:32.137Z,13.84
2022-09-24T18:38:01.392Z,13.75
2022-09-24T18:40:30.617Z,13.72
2022-09-24T18:42:59.902Z,13.60
2022-09-24T18:45:33.739Z,13.74
2022-09-24T18:48:03.316Z,13.58
2022-09-24T18:50:32.548Z,13.58
2022-09-24T18:53:01.878Z,13.55
2022-09-24T18:55:31.311Z,13.49
2022-09-24T18:58:00.393Z,13.44
2022-09-24T19:00:48.311Z,13.26
2022-09-24T19:03:18.242Z,13.30
2022-09-24T19:05:47.976Z,13.24
2022-09-24T19:08:17.612Z,13.21
2022-09-24T19:10:47.511Z,13.15
2022-09-24T19:13:18.686Z,13.04
2022-09-24T19:15:52.275Z,13.02
2022-09-24T19:18:21.525Z,12.99
2022-09-24T19:20:50.661Z,12.87
2022-09-24T19:23:20.028Z,12.80
2022-09-24T19:25:49.399Z,12.73
2022-09-24T19:28:18.499Z,12.74
2022-09-24T19:30:49.524Z,12.72
2022-09-24T19:33:20.526Z,12.69
2022-09-24T19:35:56.040Z,12.73
2022-09-24T19:38:27.949Z,12.63
2022-09-24T19:40:59.526Z,12.51
2022-09-24T19:43:31.180Z,12.44
2022-09-24T19:46:03.689Z,12.41
2022-09-24T19:48:37.664Z,12.35
2022-09-24T19:51:12.431Z,12.28
2022-09-24T19:53:41.739Z,12.28
2022-09-24T19:56:14.339Z,12.27
2022-09-24T19:58:45.910Z,12.17
2022-09-24T20:01:17.668Z,12.19
2022-09-24T20:03:49.057Z,12.15
2022-09-24T20:06:21.554Z,12.16
2022-09-24T20:08:51.061Z,12.15
2022-09-24T20:11:22.502Z,12.14
2022-09-24T20:13:55.443Z,12.15
2022-09-24T20:16:27.209Z,12.17
2022-09-24T20:18:58.740Z,12.14
2022-09-24T20:21:33.870Z,12.21
2022-09-24T20:24:03.972Z,12.28
2022-09-24T20:26:51.073Z,12.25
2022-09-24T20:29:22.688Z,12.32
2022-09-24T20:31:53.604Z,12.40
2022-09-24T20:34:33.740Z,12.34
2022-09-24T20:37:04.733Z,12.33
2022-09-24T20:39:34.194Z,12.35
2022-09-24T20:42:06.071Z,12.32
2022-09-24T20:44:37.566Z,12.31
2022-09-24T20:47:06.627Z,12.45
2022-09-24T20:49:38.516Z,12.42
2022-09-24T20:52:08.112Z,12.44
2022-09-24T20:54:37.093Z,12.40
2022-09-24T20:57:06.317Z,12.35
2022-09-24T20:59:36.279Z,12.51
2022-09-24T21:02:05.401Z,12.58
2022-09-24T21:04:37.705Z,12.64
2022-09-24T21:07:06.995Z,12.66
2022-09-24T21:09:36.241Z,12.71
2022-09-24T21:12:05.417Z,12.74
2022-09-24T21:14:36.138Z,12.76
2022-09-24T21:17:05.318Z,12.68
2022-09-24T21:19:36.962Z,12.77
2022-09-24T21:22:07.672Z,12.78
2022-09-24T21:24:36.689Z,12.69
2022-09-24T21:27:06.134Z,12.63
2022-09-24T21:29:35.567Z,12.62
2022-09-24T21:32:04.606Z,12.65
2022-09-24T21:34:33.757Z,12.68
2022-09-24T21:37:02.951Z,12.59
2022-09-24T21:39:34.074Z,12.63
2022-09-24T21:42:03.302Z,12.64
2022-09-24T21:44:34.031Z,12.62
2022-09-24T21:47:03.487Z,12.46
2022-09-24T21:49:36.510Z,12.51
2022-09-24T21:52:06.800Z,12.45
2022-09-24T21:54:39.758Z,12.44
2022-09-24T21:57:08.817Z,12.41
2022-09-24T21:59:55.524Z,12.36
2022-09-24T22:02:24.510Z,12.27
2022-09-24T22:04:54.527Z,12.32
2022-09-24T22:07:23.783Z,12.32
2022-09-24T22:09:54.352Z,12.17
2022-09-24T22:12:23.698Z,12.17
2022-09-24T22:14:53.342Z,12.11
2022-09-24T22:17:22.232Z,12.17
2022-09-24T22:19:51.527Z,12.08
2022-09-24T22:22:21.831Z,12.14
2022-09-24T22:24:50.937Z,12.06
2022-09-24T22:27:21.498Z,11.98
2022-09-24T22:29:50.708Z,12.01
2022-09-24T22:32:19.667Z,12.02
2022-09-24T22:35:06.472Z,12.10
2022-09-24T22:37:35.792Z,12.11
2022-09-24T22:40:05.293Z,12.05
2022-09-24T22:42:35.813Z,12.03
2022-09-24T22:45:06.339Z,11.98
2022-09-24T22:47:35.633Z,12.07
2022-09-24T22:50:04.740Z,12.10
2022-09-24T22:52:33.805Z,12.04
2022-09-24T22:55:03.117Z,12.06
2022-09-24T22:57:36.345Z,12.10
2022-09-24T23:00:06.836Z,12.14
2022-09-24T23:02:36.408Z,12.14
2022-09-24T23:05:06.312Z,12.03
2022-09-24T23:07:35.686Z,11.87
2022-09-24T23:10:04.855Z,12.02
2022-09-24T23:12:34.643Z,12.08
2022-09-24T23:15:06.005Z,12.20
2022-09-24T23:17:38.429Z,12.18
2022-09-24T23:20:09.359Z,12.25
2022-09-24T23:22:38.539Z,12.28
2022-09-24T23:25:08.731Z,12.29
2022-09-24T23:27:38.058Z,12.25
2022-09-24T23:30:10.228Z,12.44
2022-09-24T23:32:40.002Z,12.34
2022-09-24T23:35:09.453Z,12.41
2022-09-24T23:37:38.347Z,12.47
2022-09-24T23:40:09.806Z,12.46
2022-09-24T23:42:38.963Z,12.48
2022-09-24T23:45:10.847Z,12.56
2022-09-24T23:47:40.158Z,12.70
2022-09-24T23:50:10.030Z,12.67
2022-09-24T23:52:38.950Z,12.60
2022-09-24T23:55:08.866Z,12.56
2022-09-24T23:57:38.082Z,12.64
